Time;durP1;ratioP1;P1;durP2;ratioP2;P2;SDS_P1;SDS_P2;PMS_P1;PMS_P2;Temp;Humidity;BMP_temperature;BMP_pressure;BME280_temperature;BME280_humidity;BME280_pressure;Samples;Min_cycle;Max_cycle;Signal;HPM_P1;HPM_P2
2022/05/28 00:00:09;;;;;;;10.88;2.50;;;13.80;70.40;;;;;;5045099;28;20021;-76
2022/05/28 00:02:34;;;;;;;12.15;3.58;;;13.70;70.30;;;;;;5049035;28;20040;-76
2022/05/28 00:05:00;;;;;;;13.68;3.15;;;13.70;70.60;;;;;;5049699;28;20017;-76
2022/05/28 00:07:25;;;;;;;19.23;3.25;;;13.70;70.50;;;;;;5049616;28;20029;-76
2022/05/28 00:09:51;;;;;;;12.18;2.67;;;13.60;70.90;;;;;;5049001;28;20131;-77
2022/05/28 00:12:16;;;;;;;10.80;2.70;;;13.60;70.80;;;;;;5049102;28;20120;-76
2022/05/28 00:14:42;;;;;;;13.15;2.22;;;13.60;70.90;;;;;;5042512;28;20037;-76
2022/05/28 00:17:07;;;;;;;14.80;2.80;;;13.60;70.90;;;;;;5045354;28;20117;-77
2022/05/28 00:19:33;;;;;;;14.23;3.72;;;13.50;71.30;;;;;;5048770;28;20668;-77
2022/05/28 00:21:58;;;;;;;14.95;3.10;;;13.60;71.40;;;;;;5049662;28;20094;-77
2022/05/28 00:24:24;;;;;;;11.13;2.53;;;13.50;71.70;;;;;;5048995;28;20032;-76
2022/05/28 00:26:50;;;;;;;16.17;3.97;;;13.50;71.80;;;;;;5049634;28;20025;-77
2022/05/28 00:29:15;;;;;;;14.65;2.88;;;13.50;71.80;;;;;;5048748;28;20037;-76
2022/05/28 00:31:41;;;;;;;11.98;3.10;;;13.50;72.00;;;;;;5047646;28;20406;-77
2022/05/28 00:34:06;;;;;;;11.55;3.28;;;13.50;72.20;;;;;;5048739;28;20609;-76
2022/05/28 00:36:32;;;;;;;17.27;3.08;;;13.50;72.10;;;;;;5048744;28;20036;-76
2022/05/28 00:38:57;;;;;;;14.65;3.58;;;13.50;72.90;;;;;;5048816;28;20021;-75
2022/05/28 00:41:23;;;;;;;15.65;4.38;;;13.50;72.40;;;;;;5048354;28;20021;-76
2022/05/28 00:43:49;;;;;;;17.02;4.30;;;13.50;72.60;;;;;;5049498;28;20029;-77
2022/05/28 00:46:21;;;;;;;17.45;3.42;;;13.50;72.70;;;;;;5048454;28;20135;-77
2022/05/28 00:48:51;;;;;;;16.00;3.08;;;13.40;72.90;;;;;;5029256;28;20030;-77
2022/05/28 00:51:34;;;;;;;17.38;3.30;;;13.40;73.00;;;;;;5044708;28;20044;-77
2022/05/28 00:54:03;;;;;;;18.17;4.35;;;13.40;73.20;;;;;;5028524;28;20167;-76
2022/05/28 00:56:29;;;;;;;20.48;3.85;;;13.30;73.10;;;;;;5044680;28;20499;-75
2022/05/28 00:58:55;;;;;;;14.40;3.03;;;13.30;73.50;;;;;;5048689;28;20029;-76
2022/05/28 01:01:27;;;;;;;14.20;3.63;;;13.30;73.60;;;;;;5050840;28;20077;-76
2022/05/28 01:04:06;;;;;;;12.20;3.25;;;13.20;73.60;;;;;;5049815;28;20021;-75
2022/05/28 01:06:56;;;;;;;14.15;2.92;;;13.20;74.00;;;;;;5050265;28;20026;-76
2022/05/28 01:09:36;;;;;;;11.10;2.65;;;13.20;74.00;;;;;;5027681;28;20041;-76
2022/05/28 01:12:12;;;;;;;15.77;3.58;;;13.20;74.10;;;;;;5044280;28;20440;-76
2022/05/28 01:14:58;;;;;;;16.38;3.70;;;13.10;74.40;;;;;;5037128;28;20044;-76
2022/05/28 01:17:48;;;;;;;17.80;3.60;;;13.10;74.60;;;;;;5052074;28;20086;-77
2022/05/28 01:20:24;;;;;;;16.48;3.67;;;13.00;75.00;;;;;;5052865;28;20035;-76
2022/05/28 01:23:12;;;;;;;13.68;2.97;;;13.00;74.90;;;;;;5051577;28;20025;-75
2022/05/28 01:25:52;;;;;;;18.45;3.35;;;12.90;75.30;;;;;;5050779;28;20079;-76
2022/05/28 01:28:22;;;;;;;13.75;3.35;;;13.00;75.60;;;;;;5048450;28;20024;-76
2022/05/28 01:30:49;;;;;;;17.15;3.22;;;13.00;75.60;;;;;;5050287;28;20087;-76
2022/05/28 01:33:16;;;;;;;13.95;3.33;;;12.90;76.60;;;;;;5049796;28;20773;-77
2022/05/28 01:35:44;;;;;;;8.63;2.33;;;12.90;76.10;;;;;;5052132;28;20021;-76
2022/05/28 01:38:13;;;;;;;13.85;4.00;;;12.90;76.20;;;;;;5052224;28;20033;-77
2022/05/28 01:40:40;;;;;;;14.77;3.72;;;12.90;76.50;;;;;;5051746;28;20044;-77
2022/05/28 01:43:10;;;;;;;11.90;2.40;;;12.80;77.60;;;;;;5050419;28;20505;-77
2022/05/28 01:45:38;;;;;;;15.13;3.38;;;12.90;77.10;;;;;;5031670;28;20072;-76
2022/05/28 01:48:06;;;;;;;12.93;3.50;;;12.90;77.10;;;;;;5046362;28;20033;-76
2022/05/28 01:50:40;;;;;;;16.75;3.50;;;12.90;77.20;;;;;;5051568;28;20025;-76
2022/05/28 01:53:10;;;;;;;13.35;3.65;;;12.80;77.50;;;;;;5052565;28;20033;-76
2022/05/28 01:55:40;;;;;;;13.05;3.25;;;12.80;78.50;;;;;;5052839;28;20096;-76
2022/05/28 01:58:06;;;;;;;17.80;3.63;;;12.80;79.00;;;;;;5052117;28;20465;-77
2022/05/28 02:00:31;;;;;;;25.40;3.80;;;12.70;79.20;;;;;;5051711;28;20060;-77
2022/05/28 02:03:00;;;;;;;10.35;2.53;;;12.80;79.30;;;;;;5050866;28;20151;-76
2022/05/28 02:05:25;;;;;;;14.43;3.55;;;12.70;79.50;;;;;;5050332;28;20060;-76
2022/05/28 02:07:51;;;;;;;15.40;3.70;;;12.70;79.50;;;;;;5051886;28;20051;-76
2022/05/28 02:10:20;;;;;;;15.65;4.40;;;12.80;79.70;;;;;;5051652;28;20412;-75
2022/05/28 02:13:00;;;;;;;14.20;3.45;;;12.70;79.50;;;;;;5050758;28;20021;-77
2022/05/28 02:15:39;;;;;;;16.45;2.80;;;12.80;79.80;;;;;;5040081;28;20128;-77
2022/05/28 02:18:49;;;;;;;18.73;3.60;;;12.80;80.10;;;;;;5049484;28;20079;-75
2022/05/28 02:21:14;;;;;;;;;;;12.70;80.10;;;;;;5051399;28;20064;-77
2022/05/28 02:23:45;;;;;;;18.65;3.97;;;12.80;80.00;;;;;;5047014;28;19944;-77
2022/05/28 02:26:17;;;;;;;15.02;3.33;;;12.70;80.00;;;;;;5050073;28;20025;-76
2022/05/28 02:28:45;;;;;;;13.77;3.70;;;12.70;80.20;;;;;;5050195;28;20395;-76
2022/05/28 02:31:14;;;;;;;19.10;4.22;;;12.80;80.40;;;;;;5050677;28;20111;-77
2022/05/28 02:33:41;;;;;;;15.25;3.58;;;12.80;80.70;;;;;;5046814;28;20132;-76
2022/05/28 02:36:07;;;;;;;20.25;3.38;;;12.80;80.90;;;;;;5038145;28;20029;-76
2022/05/28 02:38:33;;;;;;;16.77;3.38;;;12.70;81.00;;;;;;5033990;28;20021;-77
2022/05/28 02:40:59;;;;;;;13.23;3.67;;;12.70;80.70;;;;;;5039874;28;20040;-77
2022/05/28 02:43:25;;;;;;;14.70;2.83;;;12.70;80.90;;;;;;5035894;28;20040;-76
2022/05/28 02:45:51;;;;;;;17.40;4.07;;;12.70;81.20;;;;;;5038745;28;20468;-76
2022/05/28 02:48:17;;;;;;;15.68;3.92;;;12.70;81.40;;;;;;5050427;28;20048;-76
2022/05/28 02:50:42;;;;;;;20.02;3.88;;;12.60;81.60;;;;;;5049448;28;20036;-76
2022/05/28 02:53:08;;;;;;;17.55;3.90;;;12.60;81.50;;;;;;5048166;28;20096;-77
2022/05/28 02:55:34;;;;;;;19.55;3.38;;;12.60;81.80;;;;;;5049573;28;20136;-76
2022/05/28 02:58:00;;;;;;;19.10;3.80;;;12.50;82.10;;;;;;5051170;28;20021;-77
2022/05/28 03:00:26;;;;;;;16.27;3.05;;;12.50;82.10;;;;;;5051813;28;20167;-77
2022/05/28 03:02:52;;;;;;;17.90;3.90;;;12.60;82.00;;;;;;5049946;28;20020;-77
2022/05/28 03:05:21;;;;;;;17.48;3.65;;;12.50;81.90;;;;;;5050949;28;20025;-77
2022/05/28 03:07:46;;;;;;;15.45;3.50;;;12.50;82.20;;;;;;5051261;28;20028;-76
2022/05/28 03:10:12;;;;;;;15.35;4.13;;;12.50;82.30;;;;;;5051689;28;20021;-75
2022/05/28 03:12:39;;;;;;;12.07;2.60;;;12.50;82.40;;;;;;5050508;28;20033;-77
2022/05/28 03:15:07;;;;;;;18.17;4.68;;;12.50;82.20;;;;;;5050387;28;20029;-77
2022/05/28 03:17:33;;;;;;;15.88;3.08;;;12.50;82.50;;;;;;5048747;28;20029;-76
2022/05/28 03:20:01;;;;;;;14.23;3.28;;;12.50;82.30;;;;;;5050159;28;20063;-76
2022/05/28 03:22:27;;;;;;;19.05;3.85;;;12.50;82.50;;;;;;5049497;28;20031;-76
2022/05/28 03:24:53;;;;;;;12.98;3.47;;;12.50;82.30;;;;;;5048385;28;20115;-76
2022/05/28 03:27:20;;;;;;;16.90;4.18;;;12.40;82.50;;;;;;5049393;28;20637;-76
2022/05/28 03:29:46;;;;;;;18.38;3.70;;;12.50;82.50;;;;;;5049611;28;20053;-76
2022/05/28 03:32:11;;;;;;;17.20;4.13;;;12.50;82.70;;;;;;5048502;28;20041;-75
2022/05/28 03:34:37;;;;;;;14.63;3.00;;;12.50;82.50;;;;;;5049360;28;20033;-76
2022/05/28 03:37:05;;;;;;;16.60;3.72;;;12.40;83.00;;;;;;5047731;28;20025;-75
2022/05/28 03:39:31;;;;;;;12.07;3.33;;;12.40;83.00;;;;;;5047265;28;20031;-77
2022/05/28 03:41:56;;;;;;;18.38;3.80;;;12.40;82.80;;;;;;5048978;28;20379;-77
2022/05/28 03:44:22;;;;;;;11.43;2.90;;;12.40;82.90;;;;;;5048669;28;20038;-77
2022/05/28 03:46:48;;;;;;;14.02;3.28;;;12.40;82.80;;;;;;5047338;28;20677;-76
2022/05/28 03:49:21;;;;;;;15.27;3.67;;;12.50;82.90;;;;;;5049121;28;20515;-76
2022/05/28 03:51:50;;;;;;;17.63;3.92;;;12.50;82.70;;;;;;5048808;28;20017;-76
2022/05/28 03:54:18;;;;;;;21.50;3.58;;;12.50;82.50;;;;;;5048922;28;20045;-76
2022/05/28 03:56:48;;;;;;;14.77;2.85;;;12.60;82.40;;;;;;5051643;28;20065;-77
2022/05/28 03:59:14;;;;;;;14.38;2.70;;;12.50;82.20;;;;;;5050686;28;20104;-77
2022/05/28 04:01:40;;;;;;;14.00;3.17;;;12.50;82.10;;;;;;5046622;28;20563;-77
2022/05/28 04:04:07;;;;;;;17.30;3.40;;;12.60;82.10;;;;;;5048842;28;20035;-77
2022/05/28 04:06:35;;;;;;;11.50;2.78;;;12.50;82.00;;;;;;5049065;28;20086;-75
2022/05/28 04:09:01;;;;;;;12.85;3.13;;;12.60;81.90;;;;;;5048718;28;20044;-75
2022/05/28 04:11:27;;;;;;;11.13;3.13;;;12.50;81.90;;;;;;5049281;28;20072;-77
2022/05/28 04:13:52;;;;;;;15.93;3.22;;;12.50;81.90;;;;;;5048330;28;20029;-74
2022/05/28 04:16:18;;;;;;;16.15;3.38;;;12.50;82.00;;;;;;5047785;28;20078;-77
2022/05/28 04:18:44;;;;;;;12.43;3.40;;;12.60;81.90;;;;;;5048800;28;20372;-76
2022/05/28 04:21:10;;;;;;;12.90;3.35;;;12.60;81.70;;;;;;5049157;28;20056;-75
2022/05/28 04:23:36;;;;;;;19.02;3.25;;;12.60;81.80;;;;;;5048850;28;20056;-76
2022/05/28 04:26:02;;;;;;;17.42;3.55;;;12.60;82.00;;;;;;5049163;28;20025;-76
2022/05/28 04:28:28;;;;;;;11.00;2.83;;;12.60;82.10;;;;;;5047289;28;20020;-75
2022/05/28 04:30:54;;;;;;;14.25;2.90;;;12.50;81.90;;;;;;5047055;28;20598;-76
2022/05/28 04:33:19;;;;;;;13.30;3.60;;;12.50;81.90;;;;;;5049196;28;20061;-77
2022/05/28 04:35:45;;;;;;;17.63;2.90;;;12.50;81.80;;;;;;5049572;28;20025;-76
2022/05/28 04:38:11;;;;;;;13.32;2.90;;;12.50;81.70;;;;;;5047693;28;20448;-76
2022/05/28 04:40:36;;;;;;;16.05;3.40;;;12.50;81.40;;;;;;5047390;28;20060;-77
2022/05/28 04:43:02;;;;;;;11.15;2.38;;;12.60;81.00;;;;;;5049142;28;20052;-76
2022/05/28 04:45:27;;;;;;;11.13;2.53;;;12.50;80.90;;;;;;5047934;28;20099;-79
2022/05/28 04:47:53;;;;;;;15.73;2.88;;;12.60;80.60;;;;;;5049024;28;20144;-77
2022/05/28 04:50:18;;;;;;;12.93;2.30;;;12.70;80.20;;;;;;5048611;28;20407;-77
2022/05/28 04:52:44;;;;;;;10.30;2.30;;;12.70;79.50;;;;;;5044407;28;20045;-77
2022/05/28 04:55:11;;;;;;;10.40;2.67;;;12.80;79.20;;;;;;5055840;28;20033;-77
2022/05/28 04:57:38;;;;;;;12.35;2.35;;;12.80;79.00;;;;;;5047548;28;20025;-77
2022/05/28 05:00:09;;;;;;;11.98;2.20;;;12.80;78.90;;;;;;5044205;28;20028;-76
2022/05/28 05:02:35;;;;;;;15.32;2.47;;;12.80;78.60;;;;;;5041571;28;20044;-77
2022/05/28 05:05:01;;;;;;;13.07;1.90;;;12.80;78.40;;;;;;5048530;28;20108;-77
2022/05/28 05:07:27;;;;;;;8.50;1.63;;;12.90;78.10;;;;;;5043080;28;20014;-75
2022/05/28 05:09:53;;;;;;;12.90;2.80;;;13.00;77.90;;;;;;5047129;28;20032;-76
2022/05/28 05:12:19;;;;;;;11.48;2.08;;;13.00;77.90;;;;;;5043821;28;20025;-75
2022/05/28 05:14:45;;;;;;;14.88;2.70;;;13.10;77.50;;;;;;5047139;28;20044;-76
2022/05/28 05:17:11;;;;;;;7.95;1.60;;;13.20;77.00;;;;;;5043861;28;20108;-76
2022/05/28 05:19:37;;;;;;;11.30;2.25;;;13.20;76.60;;;;;;5045708;28;20128;-76
2022/05/28 05:22:03;;;;;;;9.80;2.00;;;13.30;76.30;;;;;;5048128;28;20041;-75
2022/05/28 05:24:28;;;;;;;7.30;1.55;;;13.30;76.10;;;;;;5043739;28;20052;-75
2022/05/28 05:26:54;;;;;;;8.27;1.67;;;13.30;76.00;;;;;;5042719;28;20037;-77
2022/05/28 05:29:19;;;;;;;6.07;1.33;;;13.30;75.90;;;;;;5043126;28;20102;-76
2022/05/28 05:31:45;;;;;;;13.70;1.52;;;13.40;75.90;;;;;;5036029;28;20129;-75
2022/05/28 05:34:10;;;;;;;9.13;1.63;;;13.50;75.70;;;;;;5044059;28;20515;-76
2022/05/28 05:36:36;;;;;;;10.95;1.92;;;13.60;75.40;;;;;;5039458;28;20430;-75
2022/05/28 05:39:03;;;;;;;11.85;2.22;;;13.70;75.10;;;;;;5044003;28;20021;-76
2022/05/28 05:41:29;;;;;;;12.68;2.58;;;13.80;74.50;;;;;;5044474;28;20032;-75
2022/05/28 05:43:54;;;;;;;7.47;1.65;;;13.90;74.10;;;;;;5044645;28;20021;-75
2022/05/28 05:46:20;;;;;;;7.55;1.15;;;14.00;73.70;;;;;;5047686;28;20025;-75
2022/05/28 05:48:46;;;;;;;15.15;1.98;;;14.00;73.10;;;;;;5040679;28;20033;-75
2022/05/28 05:51:15;;;;;;;6.57;1.67;;;14.10;72.90;;;;;;5040598;28;20036;-75
2022/05/28 05:53:41;;;;;;;6.87;1.30;;;14.10;72.90;;;;;;5043196;28;20466;-75
2022/05/28 05:56:07;;;;;;;11.02;1.58;;;14.20;72.80;;;;;;5042009;28;20259;-75
2022/05/28 05:58:36;;;;;;;10.15;2.00;;;14.30;71.80;;;;;;5043839;28;20083;-76
2022/05/28 06:01:03;;;;;;;5.68;1.20;;;14.30;71.50;;;;;;5039952;28;20112;-76
2022/05/28 06:03:30;;;;;;;9.02;1.48;;;14.40;71.40;;;;;;5043523;28;20033;-77
2022/05/28 06:06:00;;;;;;;10.55;1.77;;;14.40;71.50;;;;;;5043342;28;20031;-76
2022/05/28 06:08:28;;;;;;;8.20;1.45;;;14.30;70.00;;;;;;5039061;28;20055;-75
2022/05/28 06:10:53;;;;;;;6.30;0.95;;;14.30;70.00;;;;;;5042697;28;20100;-75
2022/05/28 06:13:19;;;;;;;11.38;1.40;;;14.30;69.90;;;;;;5041860;28;20155;-75
2022/05/28 06:15:45;;;;;;;5.78;1.30;;;14.30;69.90;;;;;;5045572;28;20025;-76
2022/05/28 06:18:16;;;;;;;9.50;2.03;;;14.30;69.70;;;;;;5049836;28;20021;-76
2022/05/28 06:20:42;;;;;;;6.13;1.45;;;14.40;69.80;;;;;;5049558;28;20029;-75
2022/05/28 06:23:08;;;;;;;9.43;2.05;;;14.60;69.50;;;;;;5049067;28;20044;-75
2022/05/28 06:25:33;;;;;;;13.60;2.70;;;14.70;68.40;;;;;;5054588;28;20071;-77
2022/05/28 06:28:00;;;;;;;12.00;2.05;;;14.80;67.50;;;;;;5034376;28;20067;-75
2022/05/28 06:30:28;;;;;;;9.93;1.67;;;14.80;66.30;;;;;;5050142;28;20112;-76
2022/05/28 06:32:54;;;;;;;7.05;1.52;;;15.00;66.40;;;;;;5053078;28;20048;-74
2022/05/28 06:35:22;;;;;;;5.80;1.00;;;15.10;65.70;;;;;;5052786;28;20160;-75
2022/05/28 06:37:49;;;;;;;6.82;1.52;;;15.20;65.40;;;;;;5051783;28;20028;-74
2022/05/28 06:40:15;;;;;;;8.77;1.85;;;15.30;65.40;;;;;;5045717;28;20117;-75
2022/05/28 06:42:41;;;;;;;6.95;1.40;;;15.60;64.70;;;;;;5049389;28;20463;-75
2022/05/28 06:45:07;;;;;;;8.50;1.50;;;15.60;63.10;;;;;;5043721;28;20030;-74
2022/05/28 06:47:35;;;;;;;7.45;1.33;;;15.70;62.60;;;;;;5035631;28;20372;-76
2022/05/28 06:52:45;;;;;;;8.85;1.80;;;15.60;61.80;;;;;;5041185;28;20717;-76
2022/05/28 06:55:11;;;;;;;13.60;1.85;;;15.60;61.50;;;;;;5031023;28;20017;-74
2022/05/28 06:57:37;;;;;;;11.38;2.13;;;15.50;61.10;;;;;;5032967;28;20036;-72
2022/05/28 07:00:03;;;;;;;11.07;1.80;;;15.50;61.20;;;;;;5036408;28;20435;-74
2022/05/28 07:02:29;;;;;;;9.75;1.85;;;15.50;62.10;;;;;;5042857;28;20033;-73
2022/05/28 07:04:54;;;;;;;12.63;1.63;;;15.60;61.20;;;;;;5036348;28;20037;-74
2022/05/28 07:07:20;;;;;;;9.18;1.80;;;15.70;61.60;;;;;;5039912;28;20412;-73
2022/05/28 07:09:46;;;;;;;8.48;1.90;;;15.80;60.70;;;;;;5038897;28;20937;-73
2022/05/28 07:12:11;;;;;;;10.10;2.10;;;16.00;60.00;;;;;;5033016;28;20490;-73
2022/05/28 07:14:37;;;;;;;8.90;1.75;;;16.10;58.30;;;;;;5040321;28;20029;-74
2022/05/28 07:17:03;;;;;;;11.35;1.95;;;16.10;57.50;;;;;;5038227;28;20013;-74
2022/05/28 07:19:29;;;;;;;7.70;1.63;;;16.10;57.70;;;;;;5042765;28;20040;-75
2022/05/28 07:21:55;;;;;;;8.88;1.55;;;16.20;58.20;;;;;;5039560;28;20020;-74
2022/05/28 07:24:21;;;;;;;11.85;2.17;;;16.30;57.60;;;;;;5045940;28;20033;-73
2022/05/28 07:26:53;;;;;;;4.90;1.33;;;16.40;57.20;;;;;;5040231;28;20021;-75
2022/05/28 07:29:19;;;;;;;8.65;1.60;;;16.60;58.80;;;;;;5041881;28;20024;-73
2022/05/28 07:31:45;;;;;;;7.22;1.63;;;16.60;56.10;;;;;;5039683;28;20406;-73
2022/05/28 07:34:11;;;;;;;9.05;1.67;;;16.60;56.50;;;;;;5043033;28;20591;-75
2022/05/28 07:36:37;;;;;;;10.48;2.33;;;16.60;55.80;;;;;;5042649;28;20022;-74
2022/05/28 07:39:04;;;;;;;9.75;2.63;;;16.70;56.40;;;;;;5039090;28;20032;-73
2022/05/28 07:41:30;;;;;;;8.77;1.40;;;16.70;56.30;;;;;;5041475;28;20021;-74
2022/05/28 07:43:56;;;;;;;9.80;2.08;;;16.80;56.60;;;;;;5039862;28;20028;-74
2022/05/28 07:46:28;;;;;;;9.23;2.08;;;16.90;56.40;;;;;;5040772;28;20025;-75
2022/05/28 07:48:56;;;;;;;6.88;1.10;;;17.00;54.80;;;;;;5041578;28;20086;-74
2022/05/28 07:51:21;;;;;;;13.27;2.45;;;17.30;55.80;;;;;;5039234;28;20441;-74
2022/05/28 07:53:47;;;;;;;6.65;1.17;;;17.50;54.80;;;;;;5039298;28;20019;-73
2022/05/28 07:56:13;;;;;;;7.05;2.15;;;17.70;56.50;;;;;;5042780;28;20055;-73
2022/05/28 07:58:39;;;;;;;11.80;2.08;;;17.80;54.60;;;;;;5037711;28;20071;-74
2022/05/28 08:01:06;;;;;;;8.65;2.25;;;17.80;53.90;;;;;;5046558;28;20029;-76
2022/05/28 08:03:32;;;;;;;8.77;1.88;;;17.70;52.40;;;;;;5045402;28;20025;-74
2022/05/28 08:05:58;;;;;;;10.40;2.15;;;17.50;53.20;;;;;;5048905;28;20056;-75
2022/05/28 08:08:26;;;;;;;13.50;2.22;;;17.30;53.00;;;;;;5049274;28;20020;-74
2022/05/28 08:10:52;;;;;;;9.85;1.77;;;17.10;53.90;;;;;;5045409;28;20474;-73
2022/05/28 08:13:22;;;;;;;9.75;1.83;;;16.90;56.10;;;;;;5038161;28;20028;-74
2022/05/28 08:15:49;;;;;;;12.50;2.67;;;16.70;55.60;;;;;;5041538;28;20029;-73
2022/05/28 08:18:17;;;;;;;6.53;1.55;;;16.60;55.50;;;;;;5038665;28;20050;-73
2022/05/28 08:23:27;;;;;;;10.43;2.42;;;16.90;55.40;;;;;;5046838;28;20059;-73
2022/05/28 08:25:53;;;;;;;11.30;1.85;;;17.40;54.90;;;;;;5047342;28;20475;-74
2022/05/28 08:28:20;;;;;;;9.68;2.08;;;17.60;55.10;;;;;;5048401;28;20476;-74
2022/05/28 08:30:49;;;;;;;9.02;2.00;;;17.60;54.90;;;;;;5046952;28;20095;-72
2022/05/28 08:33:17;;;;;;;8.30;1.75;;;17.60;54.20;;;;;;5042129;28;20053;-73
2022/05/28 08:35:45;;;;;;;6.43;1.83;;;17.70;51.80;;;;;;5034316;28;20387;-74
2022/05/28 08:38:16;;;;;;;11.07;1.55;;;18.00;53.50;;;;;;5047909;28;20021;-74
2022/05/28 08:41:07;;;;;;;11.85;2.50;;;18.10;52.70;;;;;;5047348;28;20017;-74
2022/05/28 08:43:36;;;;;;;9.77;2.03;;;18.30;52.00;;;;;;5047557;28;20021;-74
2022/05/28 08:46:03;;;;;;;5.60;1.13;;;18.40;49.60;;;;;;5046925;28;20384;-72
2022/05/28 08:48:43;;;;;;;8.60;2.15;;;18.60;51.20;;;;;;5048268;28;20560;-74
2022/05/28 08:51:16;;;;;;;;;;;18.80;55.00;;;;;;5048317;28;20024;-72
2022/05/28 08:53:52;;;;;;;7.93;2.00;;;19.00;51.40;;;;;;5047825;28;20026;-72
2022/05/28 08:56:21;;;;;;;5.22;1.63;;;18.90;50.50;;;;;;5045901;28;20037;-72
2022/05/28 08:59:05;;;;;;;6.63;1.80;;;18.80;52.20;;;;;;5046028;28;20027;-72
2022/05/28 09:01:35;;;;;;;8.23;1.58;;;18.60;50.40;;;;;;5047112;28;20042;-74
2022/05/28 09:04:04;;;;;;;9.45;1.80;;;18.40;50.70;;;;;;5048019;28;20332;-73
2022/05/28 09:06:39;;;;;;;13.25;2.25;;;18.40;50.80;;;;;;5047439;28;20013;-72
2022/05/28 09:09:08;;;;;;;13.90;2.80;;;18.40;49.80;;;;;;5037500;28;20102;-73
2022/05/28 09:11:42;;;;;;;9.00;1.67;;;18.10;51.70;;;;;;5047176;28;20232;-72
2022/05/28 09:14:42;;;;;;;7.28;2.00;;;17.90;52.00;;;;;;5046196;28;20089;-72
2022/05/28 09:17:26;;;;;;;10.50;1.75;;;17.80;51.80;;;;;;5043189;28;20037;-72
2022/05/28 09:19:55;;;;;;;10.80;2.10;;;18.00;50.50;;;;;;5048538;28;20021;-73
2022/05/28 09:22:24;;;;;;;11.00;1.77;;;18.10;50.90;;;;;;5047608;28;20067;-73
2022/05/28 09:24:50;;;;;;;9.23;1.80;;;18.50;51.40;;;;;;5048047;28;20032;-75
2022/05/28 09:27:53;;;;;;;5.07;1.08;;;18.90;48.60;;;;;;5047436;28;20495;-73
2022/05/28 09:30:35;;;;;;;6.45;1.30;;;19.20;49.20;;;;;;5041947;28;20025;-73
2022/05/28 09:33:16;;;;;;;7.63;1.67;;;19.30;51.10;;;;;;5047275;28;20047;-72
2022/05/28 09:36:05;;;;;;;9.05;2.13;;;19.00;49.40;;;;;;5048524;28;20033;-72
2022/05/28 09:38:58;;;;;;;12.82;2.35;;;18.60;50.40;;;;;;5051149;28;20439;-71
2022/05/28 09:41:33;;;;;;;11.95;2.55;;;18.30;50.00;;;;;;5050716;28;20021;-72
2022/05/28 09:44:05;;;;;;;11.32;2.15;;;18.50;50.70;;;;;;5049754;28;20036;-73
2022/05/28 09:46:41;;;;;;;14.25;2.40;;;18.80;49.60;;;;;;5051427;28;20025;-72
2022/05/28 09:49:14;;;;;;;10.80;2.17;;;19.10;47.60;;;;;;5050970;28;20040;-73
2022/05/28 09:51:58;;;;;;;8.25;1.48;;;19.40;46.90;;;;;;5051374;28;20044;-72
2022/05/28 09:54:35;;;;;;;6.35;1.38;;;19.60;47.20;;;;;;5050399;28;20032;-73
2022/05/28 09:57:09;;;;;;;5.63;1.15;;;19.40;46.60;;;;;;5031686;28;20025;-73
2022/05/28 09:59:44;;;;;;;7.35;1.77;;;19.10;46.80;;;;;;5046416;28;20430;-72
2022/05/28 10:02:17;;;;;;;7.88;1.65;;;18.80;45.30;;;;;;5031179;28;20053;-72
2022/05/28 10:04:46;;;;;;;4.78;1.23;;;19.00;45.30;;;;;;5046027;28;20089;-72
2022/05/28 10:07:11;;;;;;;6.28;1.73;;;19.40;46.00;;;;;;5050797;28;20083;-73
2022/05/28 10:09:49;;;;;;;6.97;1.45;;;19.90;44.30;;;;;;5050537;28;20371;-72
2022/05/28 10:12:20;;;;;;;10.63;2.00;;;19.90;43.20;;;;;;5044017;28;20441;-73
2022/05/28 10:14:57;;;;;;;7.45;1.65;;;19.70;47.20;;;;;;5050421;28;20041;-72
2022/05/28 10:17:25;;;;;;;4.45;1.60;;;19.20;46.90;;;;;;5049898;28;20551;-73
2022/05/28 10:19:56;;;;;;;8.15;1.70;;;18.80;48.90;;;;;;5047970;28;20032;-73
2022/05/28 10:22:25;;;;;;;8.98;1.95;;;18.60;52.20;;;;;;5046154;28;20100;-73
2022/05/28 10:24:56;;;;;;;8.25;2.03;;;18.80;49.60;;;;;;5050732;28;20033;-73
2022/05/28 10:27:33;;;;;;;7.35;1.70;;;19.20;49.40;;;;;;5050991;28;20024;-73
2022/05/28 10:30:02;;;;;;;11.48;2.22;;;19.60;49.60;;;;;;5051173;28;20013;-73
2022/05/28 10:32:43;;;;;;;10.90;1.88;;;19.90;45.20;;;;;;5042805;28;20041;-72
2022/05/28 10:35:27;;;;;;;7.75;1.63;;;20.10;45.10;;;;;;5042303;28;20133;-72
2022/05/28 10:38:04;;;;;;;11.45;1.77;;;20.40;44.20;;;;;;5042417;28;20029;-73
2022/05/28 10:40:30;;;;;;;9.18;1.98;;;20.30;44.10;;;;;;5042189;28;20100;-73
2022/05/28 10:43:03;;;;;;;6.63;1.73;;;19.90;44.70;;;;;;5044617;28;20135;-72
2022/05/28 10:45:44;;;;;;;7.10;1.52;;;19.40;45.50;;;;;;5042467;28;20021;-73
2022/05/28 10:48:33;;;;;;;6.78;1.45;;;19.20;46.30;;;;;;5040761;28;20021;-73
2022/05/28 10:51:29;;;;;;;4.90;1.30;;;19.50;46.10;;;;;;5042010;28;20022;-74
2022/05/28 10:54:12;;;;;;;9.25;2.22;;;19.70;46.70;;;;;;5036722;28;20491;-74
2022/05/28 10:56:55;;;;;;;7.78;1.27;;;19.60;44.80;;;;;;5045615;28;20107;-73
2022/05/28 10:59:41;;;;;;;7.20;1.63;;;19.40;46.40;;;;;;5049607;28;20081;-73
2022/05/28 11:02:49;;;;;;;8.93;1.80;;;19.50;46.30;;;;;;5048215;28;20021;-73
2022/05/28 11:05:37;;;;;;;8.93;1.73;;;19.80;44.80;;;;;;5049792;28;20083;-73
2022/05/28 11:08:40;;;;;;;5.80;1.38;;;20.10;43.70;;;;;;5049644;28;20040;-73
2022/05/28 11:11:23;;;;;;;5.10;1.23;;;20.10;45.50;;;;;;5047816;28;20025;-72
2022/05/28 11:14:11;;;;;;;4.97;1.23;;;19.90;50.40;;;;;;5046436;28;20102;-72
2022/05/28 11:16:55;;;;;;;9.07;1.65;;;19.70;48.80;;;;;;5045082;28;20021;-73
2022/05/28 11:19:30;;;;;;;9.40;2.05;;;19.60;46.70;;;;;;5041602;28;20020;-72
2022/05/28 11:22:26;;;;;;;8.40;2.05;;;19.50;48.60;;;;;;5043828;28;20437;-74
2022/05/28 11:24:55;;;;;;;5.95;1.58;;;19.40;47.90;;;;;;5039693;28;20057;-74
2022/05/28 11:27:52;;;;;;;6.50;1.30;;;19.60;45.20;;;;;;5044555;28;20043;-72
2022/05/28 11:30:31;;;;;;;10.13;1.85;;;20.10;49.80;;;;;;5037188;28;20017;-73
2022/05/28 11:33:19;;;;;;;5.25;1.20;;;20.50;43.60;;;;;;5041465;28;20041;-72
2022/05/28 11:35:56;;;;;;;6.63;1.50;;;20.40;42.80;;;;;;5038459;28;20032;-73
2022/05/28 11:38:35;;;;;;;6.28;1.38;;;20.50;43.60;;;;;;5042447;28;20021;-72
2022/05/28 11:41:19;;;;;;;7.65;1.88;;;20.60;49.50;;;;;;5038713;28;20029;-74
2022/05/28 11:43:52;;;;;;;6.28;1.40;;;20.30;44.10;;;;;;5041093;28;20043;-73
2022/05/28 11:46:26;;;;;;;6.28;1.58;;;20.10;44.60;;;;;;5044789;28;20355;-72
2022/05/28 11:52:12;;;;;;;9.52;1.83;;;20.50;41.10;;;;;;5041549;28;20340;-74
2022/05/28 11:54:46;;;;;;;6.13;1.55;;;20.40;41.00;;;;;;5042815;28;20043;-73
2022/05/28 11:57:27;;;;;;;8.45;1.65;;;20.10;40.60;;;;;;5047898;28;20059;-73
2022/05/28 11:59:55;;;;;;;7.47;1.40;;;20.20;45.90;;;;;;5037104;28;20483;-73
2022/05/28 12:02:33;;;;;;;6.80;1.70;;;20.30;44.00;;;;;;5049005;28;20029;-71
2022/05/28 12:04:58;;;;;;;11.25;2.22;;;20.20;43.10;;;;;;5039963;28;20087;-77
2022/05/28 12:07:38;;;;;;;5.50;1.65;;;20.10;41.70;;;;;;5049458;28;20029;-76
2022/05/28 12:10:10;;;;;;;9.48;1.85;;;20.20;42.20;;;;;;5037342;28;20430;-77
2022/05/28 12:12:55;;;;;;;5.60;1.38;;;20.40;44.00;;;;;;5047989;28;20375;-76
2022/05/28 12:15:27;;;;;;;7.63;1.42;;;20.60;43.90;;;;;;5039927;28;20375;-77
2022/05/28 12:18:31;;;;;;;7.70;2.03;;;20.90;40.40;;;;;;5042184;28;20040;-77
2022/05/28 12:20:59;;;;;;;5.30;1.63;;;21.40;38.90;;;;;;4979248;28;20034;-77
2022/05/28 12:23:29;;;;;;;6.78;1.58;;;21.80;39.10;;;;;;4986171;28;20450;-75
2022/05/28 12:25:54;;;;;;;7.40;1.27;;;21.90;39.00;;;;;;5000253;28;20137;-76
2022/05/28 12:28:29;;;;;;;9.77;1.50;;;21.90;40.50;;;;;;5043379;28;20025;-76
2022/05/28 12:30:57;;;;;;;6.60;1.60;;;22.00;39.30;;;;;;5042521;28;20017;-76
2022/05/28 12:33:46;;;;;;;8.90;1.90;;;21.80;39.20;;;;;;5051109;28;20152;-77
2022/05/28 12:36:37;;;;;;;5.65;1.08;;;21.80;38.40;;;;;;5046783;28;20079;-77
2022/05/28 12:39:14;;;;;;;5.28;1.30;;;21.80;39.50;;;;;;5044662;28;20029;-77
2022/05/28 12:41:41;;;;;;;5.88;1.08;;;21.70;33.90;;;;;;5029587;28;20791;-77
2022/05/28 12:44:18;;;;;;;4.82;1.05;;;21.60;36.00;;;;;;5030066;28;20055;-76
2022/05/28 12:46:51;;;;;;;5.63;1.65;;;21.30;39.30;;;;;;5056938;28;20166;-76
2022/05/28 12:49:24;;;;;;;5.97;0.98;;;21.20;43.30;;;;;;5048508;28;20025;-76
2022/05/28 12:52:14;;;;;;;9.23;1.70;;;21.20;46.00;;;;;;5048198;28;20876;-77
2022/05/28 12:54:40;;;;;;;;;;;21.20;39.80;;;;;;5044192;28;20072;-75
2022/05/28 12:57:27;;;;;;;7.03;1.40;;;21.50;45.60;;;;;;5044414;28;19909;-76
2022/05/28 13:00:26;;;;;;;8.45;1.92;;;21.60;40.80;;;;;;5042274;28;20021;-76
2022/05/28 13:02:54;;;;;;;7.55;1.50;;;21.50;42.40;;;;;;5048160;28;20114;-76
2022/05/28 13:05:39;;;;;;;7.90;1.60;;;21.20;39.20;;;;;;5048606;28;20028;-74
2022/05/28 13:08:21;;;;;;;10.02;2.03;;;20.80;42.60;;;;;;5049437;28;20021;-76
2022/05/28 13:10:53;;;;;;;10.73;1.75;;;20.40;41.70;;;;;;5047780;28;20135;-75